createdAt,value
2022-11-20T00:00:09.747Z,997.7580
2022-11-20T00:00:20.809Z,1003.7590
2022-11-20T00:00:31.875Z,1000.7500
2022-11-20T00:00:42.937Z,996.2690
2022-11-20T00:00:54.008Z,994.0430
2022-11-20T00:01:05.060Z,1002.2520
2022-11-20T00:01:16.105Z,1003.7590
2022-11-20T00:01:27.171Z,1000.7500
2022-11-20T00:01:38.326Z,998.5040
2022-11-20T00:01:49.499Z,994.0430
2022-11-20T00:02:00.595Z,988.8890
2022-11-20T00:02:11.732Z,997.7580
2022-11-20T00:02:22.855Z,988.1570
2022-11-20T00:02:33.919Z,998.5040
2022-11-20T00:02:44.997Z,994.7840
2022-11-20T00:02:56.078Z,997.0130
2022-11-20T00:03:07.127Z,990.3560
2022-11-20T00:03:18.180Z,998.5040
2022-11-20T00:03:29.255Z,1004.5150
2022-11-20T00:03:40.318Z,989.6220
2022-11-20T00:03:51.390Z,989.6220
2022-11-20T00:04:02.449Z,991.0910
2022-11-20T00:04:13.516Z,994.7840
2022-11-20T00:04:24.564Z,999.2510
2022-11-20T00:04:35.619Z,992.5650
2022-11-20T00:04:46.681Z,991.0910
2022-11-20T00:04:57.731Z,997.0130
2022-11-20T00:05:08.815Z,999.2510
2022-11-20T00:05:19.867Z,997.7580
2022-11-20T00:05:30.930Z,991.0910
2022-11-20T00:05:41.999Z,991.8280
2022-11-20T00:05:53.060Z,995.5260
2022-11-20T00:06:04.117Z,991.0910
2022-11-20T00:06:15.179Z,995.5260
2022-11-20T00:06:26.229Z,989.6220
2022-11-20T00:06:37.298Z,992.5650
2022-11-20T00:06:48.350Z,1000.7500
2022-11-20T00:06:59.470Z,1002.2520
2022-11-20T00:07:10.555Z,994.7840
2022-11-20T00:07:21.695Z,997.0130
2022-11-20T00:07:32.782Z,991.8280
2022-11-20T00:07:43.859Z,994.0430
2022-11-20T00:07:54.950Z,994.7840
2022-11-20T00:08:06.000Z,995.5260
2022-11-20T00:08:17.073Z,997.0130
2022-11-20T00:08:28.129Z,999.2510
2022-11-20T00:08:39.208Z,1003.7590
2022-11-20T00:08:50.284Z,998.5040
2022-11-20T00:09:01.493Z,1003.7590
2022-11-20T00:09:12.562Z,1006.0290
2022-11-20T00:09:23.910Z,1009.0700
2022-11-20T00:09:35.324Z,1003.7590
2022-11-20T00:09:46.391Z,1006.0290
2022-11-20T00:09:57.459Z,1016.7560
2022-11-20T00:10:08.518Z,1014.4380
2022-11-20T00:10:19.569Z,1013.6670
2022-11-20T00:10:30.639Z,1012.1300
2022-11-20T00:10:41.708Z,1012.1300
2022-11-20T00:10:52.767Z,1015.9820
2022-11-20T00:11:03.821Z,1009.8340
2022-11-20T00:11:16.430Z,1012.8980
2022-11-20T00:11:27.939Z,1015.9820
2022-11-20T00:11:39.769Z,1026.9230
2022-11-20T00:11:50.840Z,1022.2050
2022-11-20T00:12:01.909Z,1017.5300
2022-11-20T00:12:12.949Z,1027.7140
2022-11-20T00:12:24.039Z,1023.7730
2022-11-20T00:12:35.129Z,1031.6851
2022-11-20T00:12:46.191Z,1031.6851
2022-11-20T00:12:57.250Z,1024.5590
2022-11-20T00:13:08.310Z,1036.4910
2022-11-20T00:13:19.367Z,1030.0930
2022-11-20T00:13:30.439Z,1033.2820
2022-11-20T00:13:41.623Z,1037.2960
2022-11-20T00:13:52.689Z,1038.1030
2022-11-20T00:14:03.759Z,1043.7841
2022-11-20T00:14:14.829Z,1041.3420
2022-11-20T00:14:25.879Z,1042.9690
2022-11-20T00:14:36.939Z,1055.3361
2022-11-20T00:14:48.016Z,1046.2380
2022-11-20T00:14:59.088Z,1046.2380
2022-11-20T00:15:10.149Z,1047.8810
2022-11-20T00:15:21.227Z,1049.5280
2022-11-20T00:15:32.273Z,1047.8810
2022-11-20T00:15:43.348Z,1054.5020
2022-11-20T00:15:54.409Z,1057.8450
2022-11-20T00:16:05.461Z,1050.3540
2022-11-20T00:16:16.540Z,1048.7040
2022-11-20T00:16:27.601Z,1064.5930
2022-11-20T00:16:38.694Z,1051.1810
2022-11-20T00:16:49.731Z,1058.6840
2022-11-20T00:17:00.789Z,1057.8450
2022-11-20T00:17:11.850Z,1068.8550
2022-11-20T00:17:22.947Z,1064.5930
2022-11-20T00:17:34.000Z,1064.5930
2022-11-20T00:17:45.069Z,1066.2939
2022-11-20T00:17:56.110Z,1071.4290
2022-11-20T00:18:07.186Z,1074.0140
2022-11-20T00:18:18.249Z,1071.4290
2022-11-20T00:18:29.329Z,1068.0000
2022-11-20T00:18:40.405Z,1081.8480
2022-11-20T00:18:51.450Z,1073.1510
2022-11-20T00:19:02.526Z,1074.8790
2022-11-20T00:19:13.580Z,1078.3521
2022-11-20T00:19:24.657Z,1074.0140
2022-11-20T00:19:35.729Z,1072.2889
2022-11-20T00:19:46.799Z,1078.3521
2022-11-20T00:19:57.875Z,1074.8790
2022-11-20T00:20:08.949Z,1082.7250
2022-11-20T00:20:20.011Z,1083.6040
2022-11-20T00:20:31.068Z,1085.3660
2022-11-20T00:20:42.148Z,1088.9070
2022-11-20T00:20:53.220Z,1081.8480
2022-11-20T00:21:04.297Z,1097.8621
2022-11-20T00:21:15.367Z,1080.0970
2022-11-20T00:21:26.401Z,1098.7650
2022-11-20T00:21:37.459Z,1082.7250
2022-11-20T00:21:48.629Z,1087.1340
2022-11-20T00:21:59.696Z,1089.7960
2022-11-20T00:22:10.780Z,1090.6860
2022-11-20T00:22:21.860Z,1087.1340
2022-11-20T00:22:32.897Z,1096.0590
2022-11-20T00:22:43.992Z,1097.8621
2022-11-20T00:22:55.058Z,1099.6710
2022-11-20T00:23:06.130Z,1106.9650
2022-11-20T00:23:17.191Z,1101.4850
2022-11-20T00:23:28.240Z,1105.1320
2022-11-20T00:23:39.321Z,1105.1320
2022-11-20T00:23:50.376Z,1106.0480
2022-11-20T00:24:01.463Z,1109.7260
2022-11-20T00:24:12.519Z,1106.9650
2022-11-20T00:24:23.606Z,1109.7260
2022-11-20T00:24:38.837Z,1118.0900
2022-11-20T00:24:51.628Z,1093.3660
2022-11-20T00:25:02.705Z,1099.6710
2022-11-20T00:25:13.759Z,1106.9650
2022-11-20T00:25:24.821Z,1112.5000
2022-11-20T00:25:35.878Z,1108.8040
2022-11-20T00:25:46.940Z,1107.8840
2022-11-20T00:25:57.999Z,1114.3571
2022-11-20T00:26:09.068Z,1113.4280
2022-11-20T00:26:20.128Z,1108.8040
2022-11-20T00:26:31.282Z,1113.4280
2022-11-20T00:26:42.359Z,1116.2209
2022-11-20T00:26:53.447Z,1117.1550
2022-11-20T00:27:04.509Z,1118.0900
2022-11-20T00:27:15.578Z,1118.0900
2022-11-20T00:27:26.639Z,1116.2209
2022-11-20T00:27:37.717Z,1120.9070
2022-11-20T00:27:48.808Z,1121.8490
2022-11-20T00:27:59.875Z,1118.0900
2022-11-20T00:28:10.928Z,1110.6490
2022-11-20T00:28:21.999Z,1133.2770
2022-11-20T00:28:33.060Z,1123.7371
2022-11-20T00:28:44.115Z,1119.9659
2022-11-20T00:28:55.166Z,1130.3979
2022-11-20T00:29:06.240Z,1124.6840
2022-11-20T00:29:17.318Z,1127.5341
2022-11-20T00:29:28.360Z,1130.3979
2022-11-20T00:29:39.420Z,1134.2400
2022-11-20T00:29:50.508Z,1129.4420
2022-11-20T00:30:01.573Z,1133.2770
2022-11-20T00:30:15.069Z,1142.9790
2022-11-20T00:30:26.537Z,1130.3979
2022-11-20T00:30:37.610Z,1139.0790
2022-11-20T00:30:48.689Z,1138.1071
2022-11-20T00:30:59.779Z,1140.0510
2022-11-20T00:31:10.838Z,1142.9790
2022-11-20T00:31:21.898Z,1146.9070
2022-11-20T00:31:32.970Z,1151.8550
2022-11-20T00:31:44.041Z,1139.0790
2022-11-20T00:31:55.099Z,1141.0260
2022-11-20T00:32:06.159Z,1157.8490
2022-11-20T00:32:17.225Z,1150.8621
2022-11-20T00:32:28.316Z,1151.8550
2022-11-20T00:32:39.349Z,1147.8929
2022-11-20T00:32:50.447Z,1154.8440
2022-11-20T00:33:01.518Z,1150.8621
2022-11-20T00:33:12.567Z,1155.8440
2022-11-20T00:33:23.645Z,1155.8440
2022-11-20T00:33:34.688Z,1150.8621
2022-11-20T00:33:45.749Z,1159.8610
2022-11-20T00:33:56.810Z,1164.9210
2022-11-20T00:34:07.869Z,1162.8920
2022-11-20T00:34:18.929Z,1165.9390
2022-11-20T00:34:30.006Z,1176.2111
2022-11-20T00:34:41.081Z,1163.9060
2022-11-20T00:34:52.116Z,1159.8610
2022-11-20T00:35:03.184Z,1166.9580
2022-11-20T00:35:14.264Z,1166.9580
2022-11-20T00:35:25.329Z,1156.8459
2022-11-20T00:35:36.389Z,1169.0020
2022-11-20T00:35:47.440Z,1164.9210
2022-11-20T00:35:58.507Z,1179.3290
2022-11-20T00:36:09.569Z,1173.1110
2022-11-20T00:36:20.635Z,1164.9210
2022-11-20T00:36:31.689Z,1169.0020
2022-11-20T00:36:42.765Z,1171.0530
2022-11-20T00:36:53.839Z,1164.9210
2022-11-20T00:37:04.888Z,1162.8920
2022-11-20T00:37:15.957Z,1177.2490
2022-11-20T00:37:27.007Z,1164.9210
2022-11-20T00:37:38.084Z,1166.9580
2022-11-20T00:37:49.149Z,1166.9580
2022-11-20T00:38:00.245Z,1174.1420
2022-11-20T00:38:11.392Z,1179.3290
2022-11-20T00:38:23.290Z,1171.0530
2022-11-20T00:38:34.350Z,1181.4160
2022-11-20T00:38:45.424Z,1173.1110
2022-11-20T00:38:56.449Z,1185.6130
2022-11-20T00:39:07.508Z,1181.4160
2022-11-20T00:39:18.964Z,1175.1760
2022-11-20T00:39:30.218Z,1181.4160
2022-11-20T00:39:41.289Z,1183.5110
2022-11-20T00:39:52.359Z,1175.1760
2022-11-20T00:40:03.418Z,1182.4620
2022-11-20T00:40:14.460Z,1185.6130
2022-11-20T00:40:25.531Z,1187.7220
2022-11-20T00:40:36.569Z,1193.0291
2022-11-20T00:40:52.216Z,1188.7800
2022-11-20T00:41:04.575Z,1179.3290
2022-11-20T00:41:15.639Z,1181.4160
2022-11-20T00:41:26.707Z,1190.9010
2022-11-20T00:41:38.250Z,1179.3290
2022-11-20T00:41:49.310Z,1185.6130
2022-11-20T00:42:00.379Z,1185.6130
2022-11-20T00:42:11.536Z,1191.9640
2022-11-20T00:42:22.598Z,1188.7800
2022-11-20T00:42:33.659Z,1186.6670
2022-11-20T00:42:44.718Z,1196.2371
2022-11-20T00:42:55.779Z,1189.8400
2022-11-20T00:43:06.939Z,1197.3090
2022-11-20T00:43:18.006Z,1200.5400
2022-11-20T00:43:29.082Z,1195.1660
2022-11-20T00:43:40.145Z,1203.7870
2022-11-20T00:43:51.228Z,1204.8740
2022-11-20T00:44:02.261Z,1194.0970
2022-11-20T00:44:13.329Z,1199.4611
2022-11-20T00:44:24.399Z,1207.0520
2022-11-20T00:44:35.456Z,1211.4340
2022-11-20T00:44:46.508Z,1220.2930
2022-11-20T00:44:57.587Z,1210.3350
2022-11-20T00:45:08.640Z,1200.5400
2022-11-20T00:45:19.689Z,1212.5341
2022-11-20T00:45:30.749Z,1211.4340
2022-11-20T00:45:41.816Z,1212.5341
2022-11-20T00:45:52.879Z,1218.0660
2022-11-20T00:46:03.947Z,1209.2390
2022-11-20T00:46:15.021Z,1216.9550
2022-11-20T00:46:26.081Z,1214.7410
2022-11-20T00:46:37.160Z,1213.6360
2022-11-20T00:46:48.244Z,1216.9550
2022-11-20T00:46:59.299Z,1227.0220
2022-11-20T00:47:10.346Z,1209.2390
2022-11-20T00:47:21.413Z,1222.5270
2022-11-20T00:47:32.501Z,1216.9550
2022-11-20T00:47:43.537Z,1219.1780
2022-11-20T00:47:54.596Z,1222.5270
2022-11-20T00:48:05.652Z,1223.6479
2022-11-20T00:48:16.748Z,1220.2930
2022-11-20T00:48:27.815Z,1220.2930
2022-11-20T00:48:38.870Z,1228.1510
2022-11-20T00:48:49.942Z,1224.7710
2022-11-20T00:49:01.017Z,1227.0220
2022-11-20T00:49:12.087Z,1223.6479
2022-11-20T00:49:23.564Z,1230.4150
2022-11-20T00:49:34.809Z,1224.7710
2022-11-20T00:49:45.887Z,1222.5270
2022-11-20T00:49:56.939Z,1227.0220
2022-11-20T00:50:08.007Z,1227.0220
2022-11-20T00:50:19.068Z,1224.7710
2022-11-20T00:50:30.129Z,1234.9680
2022-11-20T00:50:41.200Z,1221.4091
2022-11-20T00:50:52.245Z,1231.5500
2022-11-20T00:51:03.289Z,1225.8950
2022-11-20T00:51:14.349Z,1232.6870
2022-11-20T00:51:25.421Z,1240.7061
2022-11-20T00:51:36.469Z,1239.5540
2022-11-20T00:51:47.707Z,1240.7061
2022-11-20T00:51:58.772Z,1243.0170
2022-11-20T00:52:09.839Z,1239.5540
2022-11-20T00:52:20.910Z,1240.7061
2022-11-20T00:52:31.979Z,1245.3361
2022-11-20T00:52:43.039Z,1252.3450
2022-11-20T00:52:54.116Z,1243.0170
2022-11-20T00:53:05.182Z,1240.7061
2022-11-20T00:53:16.242Z,1254.6990
2022-11-20T00:53:27.309Z,1247.6639
2022-11-20T00:53:38.376Z,1250.0000
2022-11-20T00:53:49.441Z,1244.1750
2022-11-20T00:54:00.498Z,1253.5210
2022-11-20T00:54:11.569Z,1247.6639
2022-11-20T00:54:22.639Z,1248.8311
2022-11-20T00:54:33.709Z,1251.1720
2022-11-20T00:54:44.781Z,1250.0000
2022-11-20T00:54:55.856Z,1253.5210
2022-11-20T00:55:06.927Z,1252.3450
2022-11-20T00:55:18.000Z,1257.0620
2022-11-20T00:55:29.039Z,1253.5210
2022-11-20T00:55:40.079Z,1254.6990
2022-11-20T00:55:51.157Z,1257.0620
2022-11-20T00:56:02.226Z,1250.0000
2022-11-20T00:56:13.289Z,1251.1720
2022-11-20T00:56:24.329Z,1260.6230
2022-11-20T00:56:35.409Z,1269.0110
2022-11-20T00:56:46.488Z,1259.4340
2022-11-20T00:56:57.529Z,1261.8149
2022-11-20T00:57:08.595Z,1259.4340
2022-11-20T00:57:19.648Z,1253.5210
2022-11-20T00:57:30.725Z,1259.4340
2022-11-20T00:57:42.290Z,1259.4340
2022-11-20T00:57:53.375Z,1261.8149
2022-11-20T00:58:04.811Z,1270.2190
2022-11-20T00:58:15.969Z,1264.2050
2022-11-20T00:58:27.038Z,1260.6230
2022-11-20T00:58:38.149Z,1270.2190
2022-11-20T00:58:49.203Z,1272.6410
2022-11-20T00:59:00.265Z,1259.4340
2022-11-20T00:59:11.319Z,1269.0110
2022-11-20T00:59:22.651Z,1270.2190
2022-11-20T00:59:34.034Z,1275.0720
2022-11-20T00:59:45.105Z,1273.8550
2022-11-20T00:59:56.159Z,1267.8060
2022-11-20T01:00:07.235Z,1271.4290
2022-11-20T01:00:18.291Z,1271.4290
2022-11-20T01:00:29.369Z,1273.8550
2022-11-20T01:00:40.521Z,1269.0110
2022-11-20T01:00:51.606Z,1264.2050
2022-11-20T01:01:02.694Z,1267.8060
2022-11-20T01:01:13.810Z,1270.2190
2022-11-20T01:01:25.040Z,1279.9620
2022-11-20T01:01:36.298Z,1266.6030
2022-11-20T01:01:47.348Z,1278.7360
2022-11-20T01:01:58.421Z,1272.6410
2022-11-20T01:02:09.498Z,1270.2190
2022-11-20T01:02:20.548Z,1264.2050
2022-11-20T01:02:31.678Z,1276.2910
2022-11-20T01:02:42.765Z,1276.2910
2022-11-20T01:02:53.799Z,1277.5120
2022-11-20T01:03:04.865Z,1269.0110
2022-11-20T01:03:15.907Z,1278.7360
2022-11-20T01:03:27.371Z,1269.0110
2022-11-20T01:03:38.654Z,1270.2190
2022-11-20T01:03:49.701Z,1281.1899
2022-11-20T01:04:00.762Z,1277.5120
2022-11-20T01:04:11.860Z,1272.6410
2022-11-20T01:04:22.967Z,1272.6410
2022-11-20T01:04:34.029Z,1271.4290
2022-11-20T01:04:45.091Z,1275.0720
2022-11-20T01:04:56.147Z,1278.7360
2022-11-20T01:05:07.391Z,1275.0720
2022-11-20T01:05:18.459Z,1276.2910
2022-11-20T01:05:29.519Z,1275.0720
2022-11-20T01:05:40.586Z,1269.0110
2022-11-20T01:05:51.639Z,1278.7360
2022-11-20T01:06:02.712Z,1293.6050
2022-11-20T01:06:13.760Z,1273.8550
2022-11-20T01:06:24.818Z,1266.6030
2022-11-20T01:06:35.863Z,1273.8550
2022-11-20T01:06:46.940Z,1278.7360
2022-11-20T01:06:58.124Z,1275.0720
2022-11-20T01:07:09.246Z,1273.8550
2022-11-20T01:07:20.340Z,1287.3669
2022-11-20T01:07:31.592Z,1292.3521
2022-11-20T01:07:42.700Z,1276.2910
2022-11-20T01:07:53.746Z,1283.6541
2022-11-20T01:08:04.808Z,1287.3669
2022-11-20T01:08:15.870Z,1286.1270
2022-11-20T01:08:26.939Z,1284.8890
2022-11-20T01:08:37.999Z,1291.1030
2022-11-20T01:08:49.098Z,1283.6541
2022-11-20T01:09:00.185Z,1284.8890
2022-11-20T01:09:11.245Z,1282.4210
2022-11-20T01:09:22.627Z,1292.3521
2022-11-20T01:09:34.049Z,1284.8890
2022-11-20T01:09:45.128Z,1278.7360
2022-11-20T01:09:56.199Z,1272.6410
2022-11-20T01:10:07.273Z,1292.3521
2022-11-20T01:10:18.337Z,1284.8890
2022-11-20T01:10:29.409Z,1289.8550
2022-11-20T01:10:40.476Z,1287.3669
2022-11-20T01:10:51.542Z,1286.1270
2022-11-20T01:11:02.599Z,1284.8890
2022-11-20T01:11:13.671Z,1282.4210
2022-11-20T01:11:24.727Z,1289.8550
2022-11-20T01:11:35.820Z,1286.1270
2022-11-20T01:11:46.889Z,1286.1270
2022-11-20T01:11:57.969Z,1288.6100
2022-11-20T01:12:09.009Z,1273.8550
2022-11-20T01:12:20.110Z,1288.6100
2022-11-20T01:12:31.189Z,1289.8550
2022-11-20T01:12:42.259Z,1288.6100
2022-11-20T01:12:53.318Z,1294.8590
2022-11-20T01:13:04.385Z,1291.1030
2022-11-20T01:13:15.445Z,1286.1270
2022-11-20T01:13:26.518Z,1297.3760
2022-11-20T01:13:37.574Z,1291.1030
2022-11-20T01:13:48.656Z,1286.1270
2022-11-20T01:13:59.742Z,1296.1169
2022-11-20T01:14:10.807Z,1284.8890
2022-11-20T01:14:21.877Z,1291.1030
2022-11-20T01:14:32.918Z,1297.3760
2022-11-20T01:14:43.997Z,1284.8890
2022-11-20T01:14:55.069Z,1287.3669
2022-11-20T01:15:06.120Z,1283.6541
2022-11-20T01:15:17.196Z,1288.6100
2022-11-20T01:15:28.246Z,1291.1030
2022-11-20T01:15:39.290Z,1294.8590
2022-11-20T01:15:50.329Z,1296.1169
2022-11-20T01:16:01.388Z,1298.6379
2022-11-20T01:16:13.321Z,1294.8590
2022-11-20T01:16:24.376Z,1291.1030
2022-11-20T01:16:35.440Z,1289.8550
2022-11-20T01:16:46.509Z,1283.6541
2022-11-20T01:16:57.559Z,1291.1030
2022-11-20T01:17:08.628Z,1293.6050
2022-11-20T01:17:19.689Z,1298.6379
2022-11-20T01:17:30.756Z,1298.6379
2022-11-20T01:17:41.820Z,1296.1169
2022-11-20T01:17:52.885Z,1297.3760
2022-11-20T01:18:03.939Z,1291.1030
2022-11-20T01:18:15.027Z,1297.3760
2022-11-20T01:18:26.088Z,1296.1169
2022-11-20T01:18:37.159Z,1296.1169
2022-11-20T01:18:48.250Z,1299.9030
2022-11-20T01:18:59.310Z,1298.6379
2022-11-20T01:19:10.399Z,1297.3760
2022-11-20T01:19:21.985Z,1297.3760
2022-11-20T01:19:33.409Z,1296.1169
2022-11-20T01:19:44.479Z,1311.3950
2022-11-20T01:19:55.534Z,1293.6050
2022-11-20T01:20:06.609Z,1296.1169
2022-11-20T01:20:17.696Z,1293.6050
2022-11-20T01:20:28.748Z,1298.6379
2022-11-20T01:20:39.808Z,1296.1169
2022-11-20T01:20:50.876Z,1298.6379
2022-11-20T01:21:01.935Z,1299.9030
2022-11-20T01:21:13.020Z,1301.1700
2022-11-20T01:21:24.089Z,1311.3950
2022-11-20T01:21:35.157Z,1302.4390
2022-11-20T01:21:46.218Z,1299.9030
2022-11-20T01:21:57.268Z,1302.4390
2022-11-20T01:22:08.330Z,1296.1169
2022-11-20T01:22:19.377Z,1292.3521
2022-11-20T01:22:30.442Z,1306.2620
2022-11-20T01:22:41.518Z,1299.9030
2022-11-20T01:22:52.589Z,1306.2620
2022-11-20T01:23:03.648Z,1296.1169
2022-11-20T01:23:14.728Z,1306.2620
2022-11-20T01:23:25.787Z,1304.9850
2022-11-20T01:23:36.844Z,1293.6050
2022-11-20T01:23:47.906Z,1302.4390
2022-11-20T01:23:58.958Z,1306.2620
2022-11-20T01:24:10.025Z,1306.2620
2022-11-20T01:24:21.100Z,1301.1700
2022-11-20T01:24:32.158Z,1298.6379
2022-11-20T01:24:43.220Z,1296.1169
2022-11-20T01:24:54.291Z,1303.7111
2022-11-20T01:25:05.348Z,1297.3760
2022-11-20T01:25:16.419Z,1297.3760
2022-11-20T01:25:27.489Z,1297.3760
2022-11-20T01:25:38.549Z,1301.1700
2022-11-20T01:25:49.610Z,1307.5420
2022-11-20T01:26:00.669Z,1307.5420
2022-11-20T01:26:11.730Z,1308.8240
2022-11-20T01:26:22.811Z,1308.8240
2022-11-20T01:26:33.848Z,1303.7111
2022-11-20T01:26:44.909Z,1298.6379
2022-11-20T01:26:55.956Z,1306.2620
2022-11-20T01:27:06.999Z,1321.7820
2022-11-20T01:27:18.078Z,1308.8240
2022-11-20T01:27:29.139Z,1303.7111
2022-11-20T01:27:40.206Z,1310.1080
2022-11-20T01:27:51.279Z,1302.4390
2022-11-20T01:28:02.328Z,1315.2710
2022-11-20T01:28:13.370Z,1315.2710
2022-11-20T01:28:24.448Z,1311.3950
2022-11-20T01:28:35.488Z,1308.8240
2022-11-20T01:28:46.548Z,1304.9850
2022-11-20T01:28:57.618Z,1321.7820
2022-11-20T01:29:08.691Z,1316.5680
2022-11-20T01:29:20.118Z,1316.5680
2022-11-20T01:29:31.510Z,1306.2620
2022-11-20T01:29:42.580Z,1307.5420
2022-11-20T01:29:58.231Z,1308.8240
2022-11-20T01:30:10.598Z,1299.9030
2022-11-20T01:30:21.679Z,1303.7111
2022-11-20T01:30:32.753Z,1312.6840
2022-11-20T01:30:43.808Z,1304.9850
2022-11-20T01:30:54.876Z,1316.5680
2022-11-20T01:31:05.915Z,1310.1080
2022-11-20T01:31:16.969Z,1306.2620
2022-11-20T01:31:28.019Z,1310.1080
2022-11-20T01:31:39.091Z,1313.9760
2022-11-20T01:31:50.156Z,1308.8240
2022-11-20T01:32:01.198Z,1306.2620
2022-11-20T01:32:12.266Z,1316.5680
2022-11-20T01:32:23.545Z,1317.8680
2022-11-20T01:32:34.588Z,1308.8240
2022-11-20T01:32:45.651Z,1306.2620
2022-11-20T01:32:56.716Z,1315.2710
2022-11-20T01:33:07.767Z,1316.5680
2022-11-20T01:33:18.818Z,1321.7820
2022-11-20T01:33:29.898Z,1325.7200
2022-11-20T01:33:40.946Z,1332.3350
2022-11-20T01:33:52.008Z,1319.1700
2022-11-20T01:34:03.067Z,1319.1700
2022-11-20T01:34:14.129Z,1319.1700
2022-11-20T01:34:25.200Z,1311.3950
2022-11-20T01:34:36.290Z,1324.4050
2022-11-20T01:34:47.357Z,1329.6810
2022-11-20T01:34:58.404Z,1321.7820
2022-11-20T01:35:09.456Z,1321.7820
2022-11-20T01:35:20.509Z,1321.7820
2022-11-20T01:35:31.587Z,1327.0380
2022-11-20T01:35:42.646Z,1321.7820
2022-11-20T01:35:53.718Z,1328.3580
2022-11-20T01:36:04.760Z,1327.0380
2022-11-20T01:36:15.836Z,1327.0380
2022-11-20T01:36:26.917Z,1331.0070
2022-11-20T01:36:37.979Z,1331.0070
2022-11-20T01:36:49.044Z,1331.0070
2022-11-20T01:37:00.091Z,1333.6660
2022-11-20T01:37:11.157Z,1327.0380
2022-11-20T01:37:22.228Z,1331.0070
2022-11-20T01:37:33.298Z,1335.0000
2022-11-20T01:37:44.380Z,1328.3580
2022-11-20T01:37:55.440Z,1323.0920
2022-11-20T01:38:06.501Z,1328.3580
2022-11-20T01:38:17.529Z,1329.6810
2022-11-20T01:38:28.575Z,1328.3580
2022-11-20T01:38:39.629Z,1343.0580
2022-11-20T01:38:50.697Z,1328.3580
2022-11-20T01:39:01.761Z,1320.4750
2022-11-20T01:39:12.819Z,1328.3580
2022-11-20T01:39:24.423Z,1331.0070
2022-11-20T01:39:35.969Z,1336.3361
2022-11-20T01:39:47.056Z,1319.1700
2022-11-20T01:39:58.118Z,1328.3580
2022-11-20T01:40:09.178Z,1331.0070
2022-11-20T01:40:20.239Z,1333.6660
2022-11-20T01:40:31.280Z,1337.6750
2022-11-20T01:40:42.325Z,1336.3361
2022-11-20T01:40:53.369Z,1332.3350
2022-11-20T01:41:04.447Z,1335.0000
2022-11-20T01:41:15.489Z,1331.0070
2022-11-20T01:41:26.547Z,1335.0000
2022-11-20T01:41:37.610Z,1345.7660
2022-11-20T01:41:48.681Z,1332.3350
2022-11-20T01:41:59.749Z,1333.6660
2022-11-20T01:42:10.835Z,1345.7660
2022-11-20T01:42:21.877Z,1332.3350
2022-11-20T01:42:32.955Z,1344.4110
2022-11-20T01:42:44.009Z,1345.7660
2022-11-20T01:42:55.076Z,1344.4110
2022-11-20T01:43:06.137Z,1347.1240
2022-11-20T01:43:17.215Z,1349.8480
2022-11-20T01:43:28.287Z,1344.4110
2022-11-20T01:43:39.355Z,1356.7070
2022-11-20T01:43:50.412Z,1353.9550
2022-11-20T01:44:01.504Z,1351.2150
2022-11-20T01:44:12.579Z,1345.7660
2022-11-20T01:44:23.659Z,1343.0580
2022-11-20T01:44:34.717Z,1351.2150
2022-11-20T01:44:45.779Z,1358.0870
2022-11-20T01:44:56.881Z,1356.7070
2022-11-20T01:45:07.947Z,1360.8560
2022-11-20T01:45:18.987Z,1356.7070
2022-11-20T01:45:30.056Z,1358.0870
2022-11-20T01:45:41.120Z,1363.6360
2022-11-20T01:45:52.169Z,1355.3300
2022-11-20T01:46:03.240Z,1351.2150
2022-11-20T01:46:14.279Z,1362.2450
2022-11-20T01:46:25.360Z,1369.2310
2022-11-20T01:46:36.411Z,1377.7090
2022-11-20T01:46:47.479Z,1366.4280
2022-11-20T01:46:58.542Z,1362.2450
2022-11-20T01:47:09.604Z,1362.2450
2022-11-20T01:47:20.667Z,1348.4850
2022-11-20T01:47:31.729Z,1379.1320
2022-11-20T01:47:42.794Z,1367.8280
2022-11-20T01:47:53.851Z,1358.0870
2022-11-20T01:48:04.917Z,1376.2889
2022-11-20T01:48:15.969Z,1367.8280
2022-11-20T01:48:27.037Z,1373.4570
2022-11-20T01:48:38.113Z,1374.8710
2022-11-20T01:48:49.168Z,1370.6370
2022-11-20T01:49:00.202Z,1373.4570
2022-11-20T01:49:11.258Z,1373.4570
2022-11-20T01:49:22.606Z,1365.0310
2022-11-20T01:49:34.058Z,1370.6370
2022-11-20T01:49:45.119Z,1370.6370
2022-11-20T01:49:56.160Z,1370.6370
2022-11-20T01:50:07.252Z,1370.6370
2022-11-20T01:50:18.326Z,1376.2889
2022-11-20T01:50:29.375Z,1376.2889
2022-11-20T01:50:40.421Z,1372.0450
2022-11-20T01:50:51.479Z,1374.8710
2022-11-20T01:51:02.555Z,1373.4570
2022-11-20T01:51:13.622Z,1376.2889
2022-11-20T01:51:24.689Z,1374.8710
2022-11-20T01:51:35.756Z,1372.0450
2022-11-20T01:51:46.815Z,1360.8560
2022-11-20T01:51:57.879Z,1372.0450
2022-11-20T01:52:08.956Z,1372.0450
2022-11-20T01:52:20.022Z,1373.4570
2022-11-20T01:52:31.075Z,1359.4700
2022-11-20T01:52:42.130Z,1365.0310
2022-11-20T01:52:53.196Z,1376.2889
2022-11-20T01:53:04.238Z,1369.2310
2022-11-20T01:53:15.315Z,1376.2889
2022-11-20T01:53:26.349Z,1373.4570
2022-11-20T01:53:37.417Z,1365.0310
2022-11-20T01:53:48.488Z,1359.4700
2022-11-20T01:53:59.965Z,1376.2889
2022-11-20T01:54:11.009Z,1373.4570
2022-11-20T01:54:22.065Z,1374.8710
2022-11-20T01:54:33.109Z,1381.9880
2022-11-20T01:54:44.166Z,1367.8280
2022-11-20T01:54:55.220Z,1387.7340
2022-11-20T01:55:06.278Z,1373.4570
2022-11-20T01:55:17.377Z,1381.9880
2022-11-20T01:55:28.447Z,1379.1320
2022-11-20T01:55:39.520Z,1379.1320
2022-11-20T01:55:50.585Z,1366.4280
2022-11-20T01:56:01.640Z,1376.2889
2022-11-20T01:56:12.721Z,1373.4570
2022-11-20T01:56:23.779Z,1370.6370
2022-11-20T01:56:34.838Z,1373.4570
2022-11-20T01:56:45.925Z,1373.4570
2022-11-20T01:56:56.989Z,1370.6370
2022-11-20T01:57:08.049Z,1374.8710
2022-11-20T01:57:19.112Z,1379.1320
2022-11-20T01:57:30.168Z,1369.2310
2022-11-20T01:57:41.232Z,1363.6360
2022-11-20T01:57:52.292Z,1386.2930
2022-11-20T01:58:03.349Z,1373.4570
2022-11-20T01:58:14.408Z,1389.1780
2022-11-20T01:58:25.489Z,1370.6370
2022-11-20T01:58:36.548Z,1379.1320
2022-11-20T01:58:47.613Z,1374.8710
2022-11-20T01:58:58.660Z,1366.4280
2022-11-20T01:59:09.715Z,1373.4570
2022-11-20T01:59:21.042Z,1384.8550
2022-11-20T01:59:32.185Z,1370.6370
2022-11-20T01:59:43.239Z,1372.0450
2022-11-20T01:59:54.297Z,1380.5580
2022-11-20T02:00:05.360Z,1383.4200
2022-11-20T02:00:16.448Z,1377.7090
2022-11-20T02:00:27.529Z,1379.1320
2022-11-20T02:00:38.570Z,1377.7090
2022-11-20T02:00:49.638Z,1374.8710
2022-11-20T02:01:00.754Z,1381.9880
2022-11-20T02:01:11.886Z,1374.8710
2022-11-20T02:01:22.970Z,1384.8550
2022-11-20T02:01:34.122Z,1373.4570
2022-11-20T02:01:45.167Z,1381.9880
2022-11-20T02:01:56.249Z,1381.9880
2022-11-20T02:02:07.301Z,1377.7090
2022-11-20T02:02:18.431Z,1381.9880
2022-11-20T02:02:29.499Z,1386.2930
2022-11-20T02:02:40.559Z,1370.6370
2022-11-20T02:02:51.607Z,1377.7090
2022-11-20T02:03:02.657Z,1374.8710
2022-11-20T02:03:13.720Z,1383.4200
2022-11-20T02:03:24.779Z,1387.7340
2022-11-20T02:03:35.847Z,1384.8550
2022-11-20T02:03:46.910Z,1392.0750
2022-11-20T02:03:57.977Z,1381.9880
2022-11-20T02:04:09.017Z,1381.9880
2022-11-20T02:04:20.080Z,1373.4570
2022-11-20T02:04:31.150Z,1374.8710
2022-11-20T02:04:42.226Z,1390.6250
2022-11-20T02:04:53.279Z,1381.9880
2022-11-20T02:05:04.347Z,1387.7340
2022-11-20T02:05:15.422Z,1381.9880
2022-11-20T02:05:26.485Z,1374.8710
2022-11-20T02:05:37.550Z,1380.5580
2022-11-20T02:05:48.615Z,1381.9880
2022-11-20T02:05:59.676Z,1379.1320
2022-11-20T02:06:10.746Z,1372.0450
2022-11-20T02:06:21.799Z,1376.2889
2022-11-20T02:06:32.861Z,1377.7090
2022-11-20T02:06:43.919Z,1380.5580
2022-11-20T02:06:54.981Z,1373.4570
2022-11-20T02:07:06.138Z,1381.9880